Decoded Metar for UUOB (BELGOROD in RUSSIA) (IATA:N/A) | Meteo·Mobile Aviation Weather
aviador You're here:

UUOB Decoded Metar

BELGOROD in RUSSIA
Report Time2018-10-20 13:00:00
UTC Time2018-10-20 13:40:28
Flight Rules vfr VFR
Wind010° at 8 kt
W.Decomp.*RWY 29: 2.5 kt HW 7.6 kt RCW
W.Rank010° ranks 27
Current wind is above 010° avg. (7.4)
Visibility9999 m
Phenomena:N/A
Clouds:N/A
Expected CloudBase > 4,000 ft AGL from Temp-Dew spread
CeilingNone
Temp17°C (ISA +3)
Dew Point07°C (52% RH)
AAT13.4°C
QNH1016 hPa
Density Alt1,181 ft
Elevation735 ft
Report Wrong Elevation
Raw Report
METAR UUOB 201300Z 01004MPS CAVOK 17/07 Q1016 R11/010060 NOSIG=

Extra information for UUOB:More info

Metar Taf Metar & Taf Last 4 Metars F.Rules Stats Wind Profile Meteogram Temp Stats Airport Information Weather charts Add Link Nearby VenuesMetar ALERT Operation Metar Decoded Social comments